DAL39 EHAM-KATL
Flight info
| Callsign | DAL39 |
|---|---|
| Flight time | N/A |
| Altitude | 34000 |
| Route | BERGI L60 PENIL M144 BAGSO DCT DOGAL/M083F350 NATA TUDEP/N0474F360 N526A TOPPS/N0478F380 DCT KAYCC DCT KYLOH DCT BAF Q448 PTW J48 MOL DCT FLASK OZZZI2 |
| Aircraft | L101/H-SDFHIRWXY/S |
Departure
| Time | 2026-04-27 13:22 |
|---|---|
| Airport | Amsterdam Airport Schiphol (EHAM) |
Arrival
| Time | N/A |
|---|---|
| Airport | Hartsfield Jackson Atlanta International Airport (KATL) |
| Time | Latitude | Longitude | Altitude | Speed | Heading |
|---|---|---|---|---|---|
| 2026-04-27 12:17 | 52.31234 | 4.75817 | 4 ft | 0 kts | 266° |
| 2026-04-27 13:03 | 52.31235 | 4.75841 | 4 ft | 3 kts | 265° |
| 2026-04-27 13:04 | 52.31237 | 4.75885 | 4 ft | 3 kts | 269° |
| 2026-04-27 13:04 | 52.31235 | 4.75926 | 4 ft | 4 kts | 303° |
| 2026-04-27 13:04 | 52.31227 | 4.75940 | 7 ft | 0 kts | 357° |
| 2026-04-27 13:04 | 52.31248 | 4.75938 | 6 ft | 4 kts | 357° |
| 2026-04-27 13:05 | 52.31275 | 4.75935 | 4 ft | 4 kts | 357° |
| 2026-04-27 13:05 | 52.31292 | 4.75934 | 4 ft | 0 kts | 356° |
| 2026-04-27 13:11 | 52.31303 | 4.75933 | 4 ft | 3 kts | 356° |
| 2026-04-27 13:11 | 52.31337 | 4.75930 | 4 ft | 7 kts | 356° |
| 2026-04-27 13:11 | 52.31393 | 4.75925 | 4 ft | 9 kts | 356° |
| 2026-04-27 13:12 | 52.31469 | 4.75918 | 4 ft | 12 kts | 356° |
| 2026-04-27 13:12 | 52.31521 | 4.75861 | 6 ft | 10 kts | 281° |
| 2026-04-27 13:12 | 52.31521 | 4.75731 | 4 ft | 13 kts | 267° |
| 2026-04-27 13:12 | 52.31515 | 4.75564 | 4 ft | 16 kts | 267° |
| 2026-04-27 13:13 | 52.31509 | 4.75365 | 4 ft | 19 kts | 267° |
| 2026-04-27 13:13 | 52.31501 | 4.75134 | 4 ft | 21 kts | 267° |
| 2026-04-27 13:13 | 52.31493 | 4.74880 | 4 ft | 23 kts | 266° |
| 2026-04-27 13:13 | 52.31484 | 4.74607 | 4 ft | 23 kts | 267° |
| 2026-04-27 13:14 | 52.31475 | 4.74371 | 4 ft | 11 kts | 267° |
| 2026-04-27 13:14 | 52.31517 | 4.74300 | 4 ft | 10 kts | 349° |
| 2026-04-27 13:14 | 52.31597 | 4.74303 | 4 ft | 13 kts | 4° |
| 2026-04-27 13:14 | 52.31696 | 4.74312 | 4 ft | 15 kts | 3° |
| 2026-04-27 13:15 | 52.31811 | 4.74323 | 4 ft | 18 kts | 3° |
| 2026-04-27 13:15 | 52.31939 | 4.74335 | 4 ft | 18 kts | 3° |
| 2026-04-27 13:15 | 52.32022 | 4.74299 | 4 ft | 12 kts | 297° |
| 2026-04-27 13:15 | 52.32032 | 4.74153 | 4 ft | 15 kts | 272° |
| 2026-04-27 13:16 | 52.32040 | 4.73967 | 3 ft | 18 kts | 274° |
| 2026-04-27 13:16 | 52.32047 | 4.73756 | 4 ft | 19 kts | 274° |
| 2026-04-27 13:16 | 52.32055 | 4.73522 | 4 ft | 22 kts | 275° |
| 2026-04-27 13:16 | 52.32118 | 4.73312 | 4 ft | 22 kts | 319° |
| 2026-04-27 13:17 | 52.32237 | 4.73147 | 4 ft | 23 kts | 319° |
| 2026-04-27 13:17 | 52.32365 | 4.72970 | 4 ft | 25 kts | 316° |
| 2026-04-27 13:17 | 52.32498 | 4.72778 | 4 ft | 26 kts | 319° |
| 2026-04-27 13:17 | 52.32640 | 4.72578 | 4 ft | 28 kts | 319° |
| 2026-04-27 13:18 | 52.32774 | 4.72346 | 4 ft | 29 kts | 313° |
| 2026-04-27 13:18 | 52.32906 | 4.72100 | 4 ft | 30 kts | 311° |
| 2026-04-27 13:18 | 52.33044 | 4.71844 | 4 ft | 30 kts | 312° |
| 2026-04-27 13:18 | 52.33139 | 4.71656 | 5 ft | 17 kts | 296° |
| 2026-04-27 13:19 | 52.33117 | 4.71478 | 4 ft | 18 kts | 224° |
| 2026-04-27 13:19 | 52.33017 | 4.71334 | 4 ft | 21 kts | 221° |
| 2026-04-27 13:19 | 52.32904 | 4.71172 | 4 ft | 20 kts | 221° |
| 2026-04-27 13:19 | 52.32862 | 4.70996 | 3 ft | 14 kts | 276° |
| 2026-04-27 13:20 | 52.32876 | 4.70908 | 4 ft | 5 kts | 314° |
| 2026-04-27 13:20 | 52.32918 | 4.70899 | 2 ft | 6 kts | 2° |
| 2026-04-27 13:20 | 52.32921 | 4.70899 | 2 ft | 0 kts | 4° |
| 2026-04-27 13:21 | 52.32954 | 4.70903 | 2 ft | 16 kts | 4° |
| 2026-04-27 13:21 | 52.33332 | 4.70931 | 2 ft | 95 kts | 0° |
| 2026-04-27 13:21 | 52.33889 | 4.70977 | 5 ft | 142 kts | 1° |
| 2026-04-27 13:22 | 52.35535 | 4.71119 | 229 ft | 205 kts | 6° |
| 2026-04-27 13:22 | 52.36981 | 4.71332 | 1311 ft | 198 kts | 7° |
| 2026-04-27 13:22 | 52.37892 | 4.71471 | 2238 ft | 202 kts | 6° |
| 2026-04-27 13:22 | 52.39340 | 4.71635 | 3263 ft | 213 kts | 4° |
| 2026-04-27 13:23 | 52.40840 | 4.71791 | 4289 ft | 218 kts | 5° |
| 2026-04-27 13:23 | 52.42367 | 4.72001 | 5361 ft | 221 kts | 5° |
| 2026-04-27 13:23 | 52.43890 | 4.72126 | 6504 ft | 217 kts | 358° |
| 2026-04-27 13:23 | 52.45343 | 4.71654 | 7675 ft | 206 kts | 342° |
| 2026-04-27 13:24 | 52.46597 | 4.70773 | 8708 ft | 191 kts | 333° |
| 2026-04-27 13:24 | 52.47792 | 4.69656 | 9044 ft | 206 kts | 327° |
| 2026-04-27 13:24 | 52.49043 | 4.68310 | 9183 ft | 228 kts | 325° |
| 2026-04-27 13:24 | 52.50398 | 4.66745 | 9278 ft | 248 kts | 323° |
| 2026-04-27 13:25 | 52.51842 | 4.64996 | 9383 ft | 265 kts | 322° |
| 2026-04-27 13:25 | 52.53344 | 4.63129 | 9546 ft | 277 kts | 322° |
| 2026-04-27 13:25 | 52.54900 | 4.61173 | 9768 ft | 284 kts | 321° |
| 2026-04-27 13:25 | 52.56468 | 4.59195 | 10184 ft | 283 kts | 321° |
| 2026-04-27 13:26 | 52.58026 | 4.57207 | 10335 ft | 291 kts | 320° |
| 2026-04-27 13:26 | 52.59498 | 4.54862 | 10390 ft | 299 kts | 310° |
| 2026-04-27 13:26 | 52.60754 | 4.52034 | 10486 ft | 315 kts | 301° |
| 2026-04-27 13:26 | 52.61873 | 4.48822 | 10651 ft | 331 kts | 297° |
| 2026-04-27 13:27 | 52.62935 | 4.45353 | 10789 ft | 346 kts | 295° |
| 2026-04-27 13:27 | 52.63991 | 4.41711 | 10896 ft | 360 kts | 295° |
| 2026-04-27 13:27 | 52.65067 | 4.37926 | 11164 ft | 367 kts | 294° |
| 2026-04-27 13:27 | 52.66144 | 4.34106 | 11669 ft | 368 kts | 294° |
| 2026-04-27 13:28 | 52.67227 | 4.30266 | 12117 ft | 370 kts | 294° |
| 2026-04-27 13:28 | 52.68314 | 4.26413 | 12580 ft | 372 kts | 294° |
| 2026-04-27 13:28 | 52.69410 | 4.22531 | 13047 ft | 373 kts | 294° |
| 2026-04-27 13:28 | 52.70505 | 4.18653 | 13515 ft | 375 kts | 294° |
| 2026-04-27 13:29 | 52.71609 | 4.14740 | 13941 ft | 377 kts | 294° |
| 2026-04-27 13:29 | 52.72716 | 4.10806 | 14329 ft | 379 kts | 294° |
| 2026-04-27 13:29 | 52.73816 | 4.06888 | 14714 ft | 380 kts | 294° |
| 2026-04-27 13:29 | 52.74935 | 4.02894 | 15162 ft | 385 kts | 294° |
| 2026-04-27 13:30 | 52.76057 | 3.98880 | 15845 ft | 386 kts | 294° |
| 2026-04-27 13:30 | 52.77186 | 3.94838 | 16488 ft | 389 kts | 294° |
| 2026-04-27 13:30 | 52.78322 | 3.90754 | 17171 ft | 392 kts | 294° |
| 2026-04-27 13:30 | 52.79463 | 3.86646 | 17853 ft | 395 kts | 293° |
| 2026-04-27 13:31 | 52.80611 | 3.82505 | 18545 ft | 398 kts | 293° |
| 2026-04-27 13:31 | 52.81767 | 3.78332 | 19171 ft | 400 kts | 293° |
| 2026-04-27 13:31 | 52.82917 | 3.74179 | 19806 ft | 403 kts | 293° |
| 2026-04-27 13:31 | 52.84085 | 3.69952 | 20475 ft | 405 kts | 293° |
| 2026-04-27 13:32 | 52.85261 | 3.65696 | 21124 ft | 408 kts | 293° |
| 2026-04-27 13:32 | 52.86442 | 3.61410 | 21795 ft | 410 kts | 293° |
| 2026-04-27 13:32 | 52.87630 | 3.57095 | 22420 ft | 413 kts | 292° |
| 2026-04-27 13:32 | 52.88826 | 3.52739 | 23057 ft | 416 kts | 292° |
| 2026-04-27 13:33 | 52.90022 | 3.48380 | 23708 ft | 412 kts | 292° |
| 2026-04-27 13:33 | 52.91174 | 3.44192 | 23857 ft | 384 kts | 292° |
| 2026-04-27 13:33 | 52.92252 | 3.40284 | 23997 ft | 373 kts | 292° |
| 2026-04-27 13:33 | 52.93327 | 3.36375 | 24104 ft | 372 kts | 292° |
| 2026-04-27 13:34 | 52.94396 | 3.32471 | 24235 ft | 372 kts | 292° |
| 2026-04-27 13:34 | 52.95462 | 3.28565 | 24344 ft | 372 kts | 292° |
| 2026-04-27 13:34 | 52.96529 | 3.24641 | 24490 ft | 373 kts | 292° |
| 2026-04-27 13:34 | 52.97534 | 3.20670 | 24612 ft | 372 kts | 288° |
| 2026-04-27 13:35 | 52.98369 | 3.16596 | 24725 ft | 372 kts | 285° |
| 2026-04-27 13:35 | 52.99132 | 3.12537 | 24842 ft | 373 kts | 285° |
| 2026-04-27 13:35 | 52.99925 | 3.08433 | 24964 ft | 374 kts | 286° |
| 2026-04-27 13:35 | 53.00742 | 3.04321 | 25090 ft | 374 kts | 286° |
| 2026-04-27 13:36 | 53.01553 | 3.00222 | 25203 ft | 374 kts | 286° |
| 2026-04-27 13:36 | 53.02353 | 2.96100 | 25345 ft | 374 kts | 285° |
| 2026-04-27 13:36 | 53.03139 | 2.91969 | 25452 ft | 374 kts | 285° |
| 2026-04-27 13:36 | 53.03912 | 2.87884 | 25578 ft | 375 kts | 285° |
| 2026-04-27 13:37 | 53.04700 | 2.83713 | 25710 ft | 385 kts | 285° |
| 2026-04-27 13:37 | 53.05517 | 2.79392 | 25823 ft | 399 kts | 285° |
| 2026-04-27 13:37 | 53.06360 | 2.74918 | 25956 ft | 412 kts | 285° |
| 2026-04-27 13:37 | 53.07227 | 2.70296 | 26079 ft | 425 kts | 285° |
| 2026-04-27 13:38 | 53.08118 | 2.65537 | 26210 ft | 437 kts | 285° |
| 2026-04-27 13:38 | 53.09031 | 2.60648 | 26328 ft | 448 kts | 285° |
| 2026-04-27 13:38 | 53.09966 | 2.55632 | 26538 ft | 456 kts | 285° |
| 2026-04-27 13:38 | 53.10772 | 2.50548 | 27241 ft | 452 kts | 280° |
| 2026-04-27 13:39 | 53.11265 | 2.45393 | 27938 ft | 449 kts | 276° |
| 2026-04-27 13:39 | 53.11630 | 2.40308 | 28598 ft | 448 kts | 276° |
| 2026-04-27 13:39 | 53.12041 | 2.35180 | 29271 ft | 446 kts | 277° |
| 2026-04-27 13:39 | 53.12510 | 2.30082 | 29962 ft | 445 kts | 278° |
| 2026-04-27 13:40 | 53.12987 | 2.25005 | 30586 ft | 443 kts | 278° |
| 2026-04-27 13:40 | 53.13436 | 2.19923 | 31088 ft | 442 kts | 277° |
| 2026-04-27 13:40 | 53.13855 | 2.14860 | 31611 ft | 441 kts | 277° |
| 2026-04-27 13:40 | 53.14260 | 2.09807 | 32111 ft | 439 kts | 277° |
| 2026-04-27 13:41 | 53.14663 | 2.04775 | 32616 ft | 438 kts | 277° |
| 2026-04-27 13:41 | 53.15067 | 1.99754 | 33161 ft | 436 kts | 278° |
| 2026-04-27 13:41 | 53.15471 | 1.94740 | 33636 ft | 436 kts | 278° |
| 2026-04-27 13:41 | 53.15876 | 1.89694 | 33852 ft | 439 kts | 278° |
| 2026-04-27 13:42 | 53.16672 | 1.79627 | 33959 ft | 438 kts | 278° |
| 2026-04-27 13:42 | 53.17457 | 1.69561 | 33984 ft | 438 kts | 278° |